Time;durP1;ratioP1;P1;durP2;ratioP2;P2;SDS_P1;SDS_P2;PMS_P1;PMS_P2;Temp;Humidity;BMP_temperature;BMP_pressure;BME280_temperature;BME280_humidity;BME280_pressure;Samples;Min_cycle;Max_cycle;Signal;HPM_P1;HPM_P2
2021/07/07 00:01:15;;;;;;;3.92;1.10;;;;;;;21.12;58.82;101094.41;5011685;28;20158;-58
2021/07/07 00:03:41;;;;;;;2.60;0.90;;;;;;;21.12;58.88;101100.53;5012376;28;20033;-58
2021/07/07 00:06:07;;;;;;;2.33;0.90;;;;;;;21.10;58.73;101096.38;5012358;28;20386;-59
2021/07/07 00:08:32;;;;;;;4.68;1.25;;;;;;;21.11;59.00;101103.34;5011714;28;20030;-59
2021/07/07 00:10:59;;;;;;;2.78;1.00;;;;;;;21.10;58.69;101093.72;5012566;28;20470;-59
2021/07/07 00:13:24;;;;;;;2.60;1.00;;;;;;;21.10;58.77;101097.22;5011945;28;20401;-60
2021/07/07 00:15:50;;;;;;;2.53;0.95;;;;;;;21.10;58.73;101097.22;5011816;28;20259;-59
2021/07/07 00:18:15;;;;;;;3.05;1.10;;;;;;;21.08;58.66;101091.22;5012153;28;20033;-60
2021/07/07 00:20:55;;;;;;;3.67;1.05;;;;;;;21.09;58.61;101090.22;5012394;28;20026;-59
2021/07/07 00:23:24;;;;;;;3.10;0.90;;;;;;;21.07;58.70;101080.75;5015645;28;20068;-59
2021/07/07 00:25:53;;;;;;;2.45;1.08;;;;;;;21.08;58.59;101088.56;5016688;28;20101;-58
2021/07/07 00:28:20;;;;;;;2.35;1.10;;;;;;;21.07;58.64;101086.06;5015463;28;20022;-60
2021/07/07 00:30:49;;;;;;;3.75;1.20;;;;;;;21.07;58.62;101084.22;5016308;28;20018;-58
2021/07/07 00:33:15;;;;;;;2.70;1.10;;;;;;;21.06;58.63;101093.19;5016344;28;20037;-59
2021/07/07 00:35:41;;;;;;;3.42;1.08;;;;;;;21.05;58.55;101082.72;5015553;28;20069;-58
2021/07/07 00:38:08;;;;;;;4.75;1.15;;;;;;;21.06;58.63;101087.03;5016237;28;20117;-58
2021/07/07 00:40:33;;;;;;;2.83;0.90;;;;;;;21.04;58.63;101083.69;5015984;28;20029;-59
2021/07/07 00:42:59;;;;;;;2.60;0.95;;;;;;;21.05;58.68;101085.38;5015373;28;20075;-59
2021/07/07 00:45:24;;;;;;;2.83;1.10;;;;;;;21.04;58.65;101083.69;5015904;28;20029;-59
2021/07/07 00:47:49;;;;;;;2.45;0.90;;;;;;;21.04;58.52;101086.31;5016145;28;20738;-59
2021/07/07 00:50:16;;;;;;;2.22;0.90;;;;;;;21.02;58.59;101084.66;5015419;28;20418;-59
2021/07/07 00:52:41;;;;;;;4.40;1.05;;;;;;;21.00;59.03;101081.31;5015976;28;20034;-59
2021/07/07 00:55:09;;;;;;;2.15;1.00;;;;;;;21.02;58.59;101089.94;5016306;28;20049;-59
2021/07/07 00:57:35;;;;;;;2.58;1.00;;;;;;;21.02;58.40;101092.59;5014889;28;20897;-59
2021/07/07 01:00:05;;;;;;;3.33;1.08;;;;;;;21.01;58.40;101085.63;5015863;28;20044;-59
2021/07/07 01:02:35;;;;;;;2.83;0.95;;;;;;;20.98;58.43;101079.75;5015666;28;20045;-59
2021/07/07 01:05:00;;;;;;;3.55;1.10;;;;;;;21.00;58.59;101091.91;5015327;28;20026;-59
2021/07/07 01:07:25;;;;;;;3.50;0.90;;;;;;;20.96;58.47;101082.53;5016286;28;20052;-59
2021/07/07 01:09:50;;;;;;;2.33;1.00;;;;;;;21.01;58.40;101098.03;5016944;28;20482;-59
2021/07/07 01:12:21;;;;;;;2.72;0.90;;;;;;;21.00;58.58;101091.06;5015020;28;20339;-60
2021/07/07 01:14:47;;;;;;;3.25;0.95;;;;;;;20.98;58.41;101080.63;5015427;28;20030;-60
2021/07/07 01:17:12;;;;;;;1.88;1.00;;;;;;;20.99;58.27;101084.91;5015534;28;20355;-59
2021/07/07 01:19:47;;;;;;;2.70;1.20;;;;;;;20.99;58.28;101089.38;5014321;28;20375;-58
2021/07/07 01:22:12;;;;;;;3.25;1.02;;;;;;;20.98;58.27;101091.22;5015425;28;20029;-58
2021/07/07 01:24:38;;;;;;;2.67;1.02;;;;;;;20.94;58.30;101084.50;5014222;28;20101;-59
2021/07/07 01:27:06;;;;;;;2.72;1.00;;;;;;;20.93;58.36;101085.47;5015059;28;20056;-59
2021/07/07 01:29:31;;;;;;;2.90;1.02;;;;;;;20.98;58.34;101093.84;5015021;28;20026;-59
2021/07/07 01:31:57;;;;;;;1.63;0.80;;;;;;;20.96;58.35;101082.53;5014222;28;20101;-60
2021/07/07 01:34:22;;;;;;;3.00;1.10;;;;;;;20.96;58.40;101087.84;5014954;28;20385;-59
2021/07/07 01:36:47;;;;;;;2.85;1.15;;;;;;;20.93;58.42;101079.34;5014734;28;20045;-58
2021/07/07 01:39:13;;;;;;;2.20;1.05;;;;;;;20.94;58.52;101076.56;5014295;28;20363;-60
2021/07/07 01:41:39;;;;;;;2.28;1.13;;;;;;;20.95;58.41;101083.53;5014458;28;20443;-58
2021/07/07 01:44:06;;;;;;;2.60;0.93;;;;;;;20.95;58.35;101085.31;5015047;28;20022;-59
2021/07/07 01:46:31;;;;;;;2.08;0.90;;;;;;;20.95;58.38;101086.19;5013744;28;20054;-59
2021/07/07 01:48:56;;;;;;;2.42;0.98;;;;;;;20.94;58.29;101081.84;5014870;28;20050;-60
2021/07/07 01:51:22;;;;;;;4.22;1.00;;;;;;;20.93;58.42;101090.75;5014424;28;20034;-59
2021/07/07 01:53:47;;;;;;;1.60;0.90;;;;;;;20.94;58.31;101081.03;5013935;28;20049;-59
2021/07/07 01:56:13;;;;;;;1.88;0.88;;;;;;;20.93;58.38;101079.34;5014616;28;20025;-59
2021/07/07 01:58:38;;;;;;;3.05;1.10;;;;;;;20.94;58.45;101086.31;5014268;28;20079;-59
2021/07/07 02:01:05;;;;;;;1.92;0.90;;;;;;;20.91;58.41;101087.41;5013697;28;20026;-59
2021/07/07 02:03:31;;;;;;;1.88;0.90;;;;;;;20.93;58.36;101089.94;5014020;28;20049;-59
2021/07/07 02:05:56;;;;;;;1.90;0.80;;;;;;;20.92;58.34;101080.31;5014435;28;20018;-59
2021/07/07 02:08:22;;;;;;;2.40;0.90;;;;;;;20.93;58.19;101092.59;5013371;28;20032;-59
2021/07/07 02:10:47;;;;;;;3.33;1.00;;;;;;;20.91;58.37;101087.41;5014409;28;20026;-60
2021/07/07 02:13:15;;;;;;;2.20;0.90;;;;;;;20.91;58.34;101092.72;5014330;28;20014;-58
2021/07/07 02:15:41;;;;;;;2.63;0.85;;;;;;;20.88;58.36;101085.03;5013606;28;20037;-58
2021/07/07 02:18:08;;;;;;;2.53;1.00;;;;;;;20.89;58.18;101081.44;5014287;28;20121;-58
2021/07/07 02:20:39;;;;;;;3.28;1.08;;;;;;;20.90;58.20;101092.84;5013914;28;20025;-58
2021/07/07 02:23:07;;;;;;;3.85;1.02;;;;;;;20.90;58.32;101091.03;5013685;28;20041;-58
2021/07/07 02:25:37;;;;;;;2.30;1.00;;;;;;;20.89;58.01;101088.56;5013787;28;20026;-58
2021/07/07 02:28:05;;;;;;;2.15;1.02;;;;;;;20.90;58.24;101092.84;5013537;28;20327;-59
2021/07/07 02:30:33;;;;;;;1.98;1.02;;;;;;;20.89;58.35;101089.38;5013932;28;20076;-58
2021/07/07 02:33:04;;;;;;;1.80;0.90;;;;;;;20.90;58.15;101087.56;5014123;28;20022;-59
2021/07/07 02:35:32;;;;;;;1.90;0.90;;;;;;;20.88;58.19;101081.56;5012822;28;20455;-58
2021/07/07 02:37:58;;;;;;;3.03;0.90;;;;;;;20.87;58.16;101086.03;5013687;28;20445;-59
2021/07/07 02:40:26;;;;;;;2.25;0.90;;;;;;;20.88;58.16;101093.00;5013633;28;20037;-59
2021/07/07 02:42:52;;;;;;;2.17;0.93;;;;;;;20.89;58.10;101091.19;5012905;28;20022;-58
2021/07/07 02:45:19;;;;;;;2.17;0.88;;;;;;;20.88;57.96;101093.00;5012690;28;20037;-58
2021/07/07 02:47:45;;;;;;;2.30;1.00;;;;;;;20.87;58.29;101078.09;5013646;28;20022;-58
2021/07/07 02:50:13;;;;;;;2.75;1.15;;;;;;;20.88;58.13;101079.75;5013155;28;20037;-58
2021/07/07 02:52:40;;;;;;;2.55;1.00;;;;;;;20.87;58.09;101079.88;5013510;28;20124;-58
2021/07/07 02:55:08;;;;;;;2.28;1.00;;;;;;;20.87;58.14;101082.53;5013322;28;20026;-58
2021/07/07 02:57:56;;;;;;;2.70;0.90;;;;;;;20.87;58.09;101085.19;5012364;28;20092;-58
2021/07/07 03:00:18;;;;;;;2.53;1.00;;;;;;;20.86;58.15;101078.22;5013088;28;20026;-59
2021/07/07 03:02:44;;;;;;;2.03;0.93;;;;;;;20.86;58.02;101079.06;5013420;28;20399;-59
2021/07/07 03:05:09;;;;;;;3.00;1.00;;;;;;;20.86;57.97;101081.69;5012676;28;20030;-59
2021/07/07 03:07:37;;;;;;;1.80;0.90;;;;;;;20.86;57.95;101083.53;5013012;28;20623;-58
2021/07/07 03:10:11;;;;;;;2.85;1.10;;;;;;;20.84;58.10;101084.50;5012664;28;20025;-58
2021/07/07 03:12:38;;;;;;;1.90;1.00;;;;;;;20.83;58.07;101081.97;5012882;28;20026;-58
2021/07/07 03:15:06;;;;;;;2.70;0.95;;;;;;;20.84;58.02;101087.13;5013232;28;20029;-58
2021/07/07 03:17:31;;;;;;;4.32;1.00;;;;;;;20.83;57.91;101084.63;5011908;28;20026;-58
2021/07/07 03:19:56;;;;;;;1.65;0.80;;;;;;;20.83;57.98;101088.09;5013392;28;20044;-58
2021/07/07 03:22:21;;;;;;;1.90;0.90;;;;;;;20.82;57.83;101091.75;5012929;28;20030;-58
2021/07/07 03:24:47;;;;;;;1.98;0.95;;;;;;;20.82;57.85;101089.09;5012448;28;20275;-59
2021/07/07 03:27:18;;;;;;;3.28;1.10;;;;;;;20.83;58.03;101100.50;5013128;28;20029;-58
2021/07/07 03:29:43;;;;;;;3.17;0.82;;;;;;;20.80;57.51;101104.25;5012968;28;20054;-58
2021/07/07 03:32:08;;;;;;;2.47;1.10;;;;;;;20.82;57.96;101101.47;5011973;28;20053;-59
2021/07/07 03:34:34;;;;;;;2.87;1.10;;;;;;;20.80;57.99;101101.63;5012209;28;20076;-59
2021/07/07 03:36:59;;;;;;;2.40;1.05;;;;;;;20.81;57.83;101111.25;5012925;28;20271;-57
2021/07/07 03:39:24;;;;;;;2.88;1.00;;;;;;;20.79;57.93;101107.91;5011817;28;20048;-60
2021/07/07 03:41:50;;;;;;;2.65;1.30;;;;;;;20.80;57.84;101109.56;5012903;28;20026;-59
2021/07/07 03:44:15;;;;;;;1.95;1.00;;;;;;;20.80;57.68;101112.22;5012251;28;20018;-58
2021/07/07 03:46:40;;;;;;;2.00;0.90;;;;;;;20.80;58.13;101114.03;5011738;28;20090;-59
2021/07/07 03:49:05;;;;;;;2.83;1.20;;;;;;;20.79;57.72;101115.00;5012799;28;20767;-58
2021/07/07 03:51:33;;;;;;;2.53;0.90;;;;;;;20.79;57.83;101125.59;5012124;28;20033;-58
2021/07/07 03:54:01;;;;;;;2.15;0.98;;;;;;;20.79;57.81;101121.16;5011584;28;20282;-58
2021/07/07 03:56:26;;;;;;;3.22;1.15;;;;;;;20.80;57.87;101121.97;5012048;28;20022;-58
2021/07/07 03:58:51;;;;;;;3.10;1.20;;;;;;;20.79;57.57;101125.59;5012419;28;20389;-58
2021/07/07 04:01:16;;;;;;;1.93;1.10;;;;;;;20.77;57.79;101122.25;5011309;28;20101;-59
2021/07/07 04:03:42;;;;;;;2.50;1.10;;;;;;;20.79;57.55;101129.09;5012644;28;20279;-58
2021/07/07 04:06:10;;;;;;;2.95;1.10;;;;;;;20.78;57.82;101124.75;5012381;28;20276;-58
2021/07/07 04:08:38;;;;;;;2.67;1.10;;;;;;;20.75;57.58;101119.72;5011896;28;20084;-58
2021/07/07 04:11:03;;;;;;;2.15;1.00;;;;;;;20.78;57.82;101135.34;5012651;28;20034;-58
2021/07/07 04:13:29;;;;;;;4.40;1.20;;;;;;;20.78;57.79;101131.88;5011348;28;20532;-58
2021/07/07 04:15:56;;;;;;;2.83;1.08;;;;;;;20.77;57.75;101146.09;5012104;28;20018;-59
2021/07/07 04:18:21;;;;;;;3.83;1.30;;;;;;;20.76;57.75;101139.09;5012128;28;20032;-58
2021/07/07 04:20:47;;;;;;;2.67;1.48;;;;;;;20.73;57.56;101140.22;5011915;28;20030;-59
2021/07/07 04:23:13;;;;;;;3.15;1.40;;;;;;;20.77;57.69;101148.72;5012353;28;20374;-59
2021/07/07 04:25:39;;;;;;;2.13;1.00;;;;;;;20.76;57.82;101145.25;5012058;28;20432;-59
2021/07/07 04:28:06;;;;;;;2.55;1.10;;;;;;;20.75;57.77;101146.22;5011519;28;20088;-57
2021/07/07 04:30:32;;;;;;;2.38;1.00;;;;;;;20.77;57.62;101154.03;5011817;28;20386;-58
2021/07/07 04:32:57;;;;;;;2.40;1.05;;;;;;;20.77;57.89;101152.22;5012283;28;20022;-58
2021/07/07 04:35:23;;;;;;;3.53;1.20;;;;;;;20.77;57.75;101161.97;5011202;28;20133;-58
2021/07/07 04:37:49;;;;;;;2.85;1.20;;;;;;;20.74;57.84;101146.34;5012209;28;20115;-58
2021/07/07 04:40:15;;;;;;;3.83;1.30;;;;;;;20.76;57.76;101144.41;5011767;28;20029;-58
2021/07/07 04:42:40;;;;;;;2.67;1.00;;;;;;;20.76;57.94;101147.03;5011301;28;20493;-58
2021/07/07 04:45:08;;;;;;;5.53;1.30;;;;;;;20.75;57.67;101164.75;5011836;28;20030;-58
2021/07/07 04:47:35;;;;;;;3.70;1.30;;;;;;;20.76;57.82;101169.09;5011954;28;20464;-58
2021/07/07 04:50:00;;;;;;;2.60;1.13;;;;;;;20.76;57.74;101173.53;5011471;28;20049;-59
2021/07/07 04:52:26;;;;;;;2.58;1.00;;;;;;;20.75;57.90;101170.06;5011715;28;20474;-58
2021/07/07 04:54:57;;;;;;;2.72;1.48;;;;;;;20.75;57.86;101169.22;5012216;28;20426;-59
2021/07/07 04:57:22;;;;;;;2.33;1.13;;;;;;;20.76;57.85;101168.22;5010900;28;20393;-59
2021/07/07 04:59:47;;;;;;;2.15;1.15;;;;;;;20.76;57.78;101173.53;5011876;28;20026;-59
2021/07/07 05:02:12;;;;;;;3.10;1.30;;;;;;;20.75;57.70;101171.88;5012237;28;20109;-58
2021/07/07 05:04:38;;;;;;;2.50;1.03;;;;;;;20.75;57.62;101178.00;5011103;28;20022;-58
2021/07/07 05:07:03;;;;;;;4.20;1.27;;;;;;;20.76;57.88;101181.47;5012582;28;20605;-58
2021/07/07 05:09:28;;;;;;;3.20;1.30;;;;;;;20.75;57.71;101188.59;5014931;28;20026;-59
2021/07/07 05:11:54;;;;;;;3.00;1.27;;;;;;;20.75;57.85;101185.13;5015373;28;20294;-59
2021/07/07 05:14:19;;;;;;;3.85;1.40;;;;;;;20.75;57.92;101183.28;5015103;28;20530;-58
2021/07/07 05:16:45;;;;;;;3.20;1.20;;;;;;;20.75;57.65;101180.66;5014712;28;20018;-58
2021/07/07 05:19:10;;;;;;;2.25;1.02;;;;;;;20.75;57.96;101187.75;5015553;28;20037;-59
2021/07/07 05:21:37;;;;;;;3.05;1.15;;;;;;;20.75;57.93;101188.59;5015072;28;20367;-58
2021/07/07 05:24:03;;;;;;;3.53;1.42;;;;;;;20.76;57.97;101189.41;5014644;28;20466;-58
2021/07/07 05:26:28;;;;;;;3.67;1.40;;;;;;;20.76;57.89;101189.41;5014926;28;20053;-59
2021/07/07 05:28:53;;;;;;;2.70;1.20;;;;;;;20.74;57.80;101186.91;5015106;28;20030;-60
2021/07/07 05:31:18;;;;;;;3.17;1.30;;;;;;;20.75;57.92;101191.25;5014141;28;20029;-61
2021/07/07 05:33:44;;;;;;;3.70;1.33;;;;;;;20.75;57.84;101188.59;5015124;28;20743;-58
2021/07/07 05:36:10;;;;;;;3.70;1.40;;;;;;;20.75;57.99;101188.59;5014752;28;20068;-58
2021/07/07 05:38:36;;;;;;;3.17;1.42;;;;;;;20.76;57.67;101192.06;5013819;28;20164;-59
2021/07/07 05:41:03;;;;;;;2.85;1.20;;;;;;;20.76;57.83;101190.28;5014808;28;20026;-61
2021/07/07 05:43:29;;;;;;;3.75;1.50;;;;;;;20.76;57.67;101197.38;5014377;28;20532;-59
2021/07/07 05:45:57;;;;;;;4.47;1.63;;;;;;;20.76;57.77;101192.06;5014457;28;20032;-60
2021/07/07 05:48:23;;;;;;;4.30;1.50;;;;;;;20.72;57.65;101188.84;5014567;28;20100;-59
2021/07/07 05:50:48;;;;;;;3.33;1.30;;;;;;;20.75;57.93;101193.88;5014905;28;20109;-59
2021/07/07 05:53:13;;;;;;;3.47;1.15;;;;;;;20.76;57.94;101202.66;5013918;28;20109;-59
2021/07/07 05:55:39;;;;;;;4.93;1.50;;;;;;;20.75;58.06;101203.66;5014348;28;20389;-59
2021/07/07 05:58:04;;;;;;;4.00;1.40;;;;;;;20.75;57.91;101206.31;5014442;28;20314;-59
2021/07/07 06:00:29;;;;;;;3.38;1.70;;;;;;;20.74;57.92;101212.56;5013744;28;20022;-59
2021/07/07 06:02:56;;;;;;;5.90;1.70;;;;;;;20.75;57.84;101206.31;5014372;28;20029;-60
2021/07/07 06:05:25;;;;;;;4.28;1.52;;;;;;;20.76;58.08;101211.47;5014082;28;20034;-59
2021/07/07 06:07:51;;;;;;;3.42;1.50;;;;;;;20.76;57.96;101218.56;5013684;28;20022;-60
2021/07/07 06:10:18;;;;;;;3.50;1.30;;;;;;;20.77;57.91;101220.25;5014064;28;20049;-60
2021/07/07 06:12:44;;;;;;;3.92;1.40;;;;;;;20.77;57.89;101217.59;5014166;28;20097;-60
2021/07/07 06:15:12;;;;;;;3.63;1.30;;;;;;;20.75;57.76;101215.06;5013959;28;20106;-58
2021/07/07 06:17:41;;;;;;;4.95;1.77;;;;;;;20.77;57.90;101221.06;5013947;28;20030;-60
2021/07/07 06:20:08;;;;;;;4.78;1.50;;;;;;;20.77;57.91;101221.06;5014790;28;20041;-59
2021/07/07 06:22:34;;;;;;;3.13;1.50;;;;;;;20.79;57.81;101223.59;5015355;28;20440;-59
2021/07/07 06:24:59;;;;;;;5.65;1.55;;;;;;;20.80;58.00;101228.75;5015629;28;20420;-59
2021/07/07 06:27:24;;;;;;;4.18;1.48;;;;;;;20.82;58.08;101226.84;5014595;28;20026;-58
2021/07/07 06:29:50;;;;;;;2.95;1.20;;;;;;;20.83;57.97;101235.59;5016248;28;20026;-59
2021/07/07 06:32:17;;;;;;;4.10;1.30;;;;;;;20.84;58.18;101234.66;5017588;28;20026;-58
2021/07/07 06:34:43;;;;;;;3.92;1.40;;;;;;;20.86;58.24;101232.69;5018341;28;20041;-58
2021/07/07 06:37:09;;;;;;;3.95;1.40;;;;;;;20.88;58.46;101233.38;5018179;28;20026;-59
2021/07/07 06:39:35;;;;;;;2.72;1.30;;;;;;;20.83;58.41;101222.38;5020963;28;20022;-59
2021/07/07 06:42:00;;;;;;;3.85;1.20;;;;;;;20.93;58.67;101231.16;5018051;28;20057;-58
2021/07/07 06:44:25;;;;;;;2.77;1.50;;;;;;;20.94;58.70;101230.22;5019106;28;20053;-59
2021/07/07 06:46:51;;;;;;;3.22;1.30;;;;;;;20.94;58.45;101240.81;5017225;28;20268;-59
2021/07/07 06:49:16;;;;;;;2.78;1.23;;;;;;;20.99;58.67;101237.75;5013171;28;20508;-60
2021/07/07 06:51:50;;;;;;;3.72;1.20;;;;;;;20.99;58.68;101237.75;5013761;28;20028;-59
2021/07/07 06:54:19;;;;;;;4.18;1.55;;;;;;;21.01;58.71;101247.25;5013811;28;20085;-59
2021/07/07 06:56:47;;;;;;;4.82;1.70;;;;;;;21.03;58.72;101247.13;5016183;28;20026;-59
2021/07/07 06:59:12;;;;;;;3.92;1.45;;;;;;;21.06;58.77;101252.16;5013868;28;20041;-59
2021/07/07 07:01:40;;;;;;;3.63;1.40;;;;;;;21.09;58.93;101264.28;5013525;28;20025;-58
2021/07/07 07:04:06;;;;;;;3.42;1.33;;;;;;;21.09;58.95;101254.53;5012970;28;20278;-59
2021/07/07 07:06:31;;;;;;;4.45;1.42;;;;;;;21.12;58.96;101258.72;5013286;28;20025;-59
2021/07/07 07:08:56;;;;;;;4.63;1.30;;;;;;;21.14;58.96;101260.28;5013860;28;20367;-58
2021/07/07 07:11:21;;;;;;;5.00;1.35;;;;;;;21.16;58.85;101257.50;5013885;28;20333;-58
2021/07/07 07:13:47;;;;;;;3.75;1.50;;;;;;;21.18;58.87;101260.84;5014932;28;20419;-58
2021/07/07 07:16:13;;;;;;;3.63;1.45;;;;;;;21.19;58.87;101259.88;5013439;28;20036;-59
2021/07/07 07:18:38;;;;;;;5.97;1.50;;;;;;;21.20;59.06;101267.69;5013094;28;20108;-58
2021/07/07 07:21:03;;;;;;;4.05;1.80;;;;;;;21.20;59.08;101267.69;5013547;28;20026;-58
2021/07/07 07:23:29;;;;;;;4.38;1.70;;;;;;;21.22;59.12;101266.69;5012098;28;20069;-58
2021/07/07 07:25:54;;;;;;;4.55;1.98;;;;;;;21.25;59.30;101271.72;5013202;28;20026;-58
2021/07/07 07:28:19;;;;;;;4.20;1.50;;;;;;;21.26;59.32;101270.78;5012799;28;20485;-58
2021/07/07 07:30:46;;;;;;;6.10;1.70;;;;;;;21.26;59.34;101274.25;5011845;28;20541;-59
2021/07/07 07:33:14;;;;;;;3.20;1.45;;;;;;;21.26;59.17;101281.38;5013033;28;20504;-58
2021/07/07 07:35:42;;;;;;;3.58;1.75;;;;;;;21.28;59.23;101282.06;5012730;28;20096;-58
2021/07/07 07:38:12;;;;;;;4.65;1.40;;;;;;;21.29;59.35;101281.09;5012153;28;20033;-58
2021/07/07 07:40:38;;;;;;;4.43;1.40;;;;;;;21.29;59.49;101289.06;5012998;28;20030;-62
2021/07/07 07:43:06;;;;;;;5.45;1.58;;;;;;;21.34;59.36;101297.44;5014139;28;20098;-61
2021/07/07 07:45:59;;;;;;;4.60;1.50;;;;;;;21.33;59.41;101288.66;5018165;28;20026;-61
2021/07/07 07:48:45;;;;;;;3.80;1.25;;;;;;;21.38;59.28;101290.91;5022558;28;20092;-60
2021/07/07 07:51:12;;;;;;;5.65;1.50;;;;;;;21.37;59.20;101289.22;5036548;28;20071;-60
2021/07/07 07:53:38;;;;;;;4.13;1.65;;;;;;;21.41;59.15;101292.44;5014422;28;20477;-61
2021/07/07 07:56:03;;;;;;;3.45;1.52;;;;;;;21.41;59.13;101287.13;5012641;28;20079;-61
2021/07/07 07:58:28;;;;;;;4.45;1.50;;;;;;;21.41;59.16;101287.13;5011950;28;20030;-62
2021/07/07 08:00:54;;;;;;;4.53;1.70;;;;;;;21.44;58.53;101289.50;5014035;28;20026;-60
2021/07/07 08:03:19;;;;;;;4.68;1.63;;;;;;;21.43;58.90;101291.34;5012721;28;20026;-58
2021/07/07 08:05:44;;;;;;;3.80;1.40;;;;;;;21.42;59.00;101292.28;5013849;28;20025;-59
2021/07/07 08:08:10;;;;;;;3.95;1.50;;;;;;;21.42;58.95;101292.28;5014797;28;20321;-60
2021/07/07 08:10:38;;;;;;;4.57;1.58;;;;;;;21.42;58.73;101292.28;5013671;28;20026;-60
2021/07/07 08:13:06;;;;;;;5.32;1.50;;;;;;;21.43;58.66;101295.78;5012583;28;20026;-61
2021/07/07 08:15:32;;;;;;;4.93;1.30;;;;;;;21.41;58.65;101295.91;5012232;28;20101;-60
2021/07/07 08:17:57;;;;;;;3.58;1.33;;;;;;;21.42;58.61;101294.94;5012482;28;20089;-59
2021/07/07 08:20:23;;;;;;;4.78;1.33;;;;;;;21.41;58.62;101300.38;5011507;28;20101;-59
2021/07/07 08:22:50;;;;;;;3.05;1.30;;;;;;;21.40;58.56;101307.50;5012547;28;20018;-59
2021/07/07 08:25:16;;;;;;;4.80;1.25;;;;;;;21.42;58.60;101296.78;5012129;28;20022;-60
2021/07/07 08:27:42;;;;;;;4.13;1.30;;;;;;;21.41;58.46;101309.16;5011607;28;20118;-60
2021/07/07 08:30:10;;;;;;;4.18;1.30;;;;;;;21.41;58.31;101303.88;5012226;28;20064;-59
2021/07/07 08:32:36;;;;;;;6.80;1.35;;;;;;;21.42;58.44;101308.19;5011917;28;20033;-58
2021/07/07 08:35:03;;;;;;;4.35;1.50;;;;;;;21.41;58.12;101301.22;5011492;28;20578;-58
2021/07/07 08:37:28;;;;;;;3.42;1.38;;;;;;;21.40;57.67;101314.63;5011850;28;20036;-57
2021/07/07 08:39:54;;;;;;;3.85;1.27;;;;;;;21.37;57.72;101307.78;5012265;28;20022;-58
2021/07/07 08:42:19;;;;;;;5.63;1.60;;;;;;;21.37;57.99;101313.91;5012270;28;20022;-59
2021/07/07 08:44:44;;;;;;;3.30;1.38;;;;;;;21.36;58.12;101314.91;5016129;28;20080;-58
2021/07/07 08:47:10;;;;;;;3.83;1.50;;;;;;;21.36;58.01;101317.56;5016351;28;20053;-58
2021/07/07 08:49:36;;;;;;;4.25;1.50;;;;;;;21.38;57.97;101320.91;5015360;28;20136;-60
2021/07/07 08:52:21;;;;;;;4.40;1.25;;;;;;;21.42;58.16;101320.63;5016294;28;20029;-60
2021/07/07 08:54:48;;;;;;;4.88;1.38;;;;;;;21.44;58.13;101314.19;5015807;28;20553;-59
2021/07/07 08:57:13;;;;;;;5.30;1.38;;;;;;;21.46;58.02;101320.22;5015511;28;20104;-60
2021/07/07 08:59:38;;;;;;;3.72;1.40;;;;;;;21.49;57.97;101330.59;5015887;28;20470;-59
2021/07/07 09:02:10;;;;;;;4.53;1.30;;;;;;;21.51;58.00;101319.84;5014975;28;20037;-60
2021/07/07 09:04:43;;;;;;;5.20;1.35;;;;;;;21.51;57.98;101323.34;5015679;28;20333;-60
2021/07/07 09:07:16;;;;;;;4.30;1.50;;;;;;;21.52;57.91;101325.03;5015884;28;20037;-61
2021/07/07 09:09:47;;;;;;;5.05;1.35;;;;;;;21.55;57.86;101327.41;5014994;28;20025;-61
2021/07/07 09:12:18;;;;;;;5.30;1.42;;;;;;;21.59;57.84;101329.75;5015487;28;20470;-59
2021/07/07 09:14:46;;;;;;;4.70;1.10;;;;;;;21.60;57.89;101342.88;5015652;28;20033;-59
2021/07/07 09:17:19;;;;;;;5.38;1.50;;;;;;;21.63;57.90;101339.97;5014920;28;20033;-60
2021/07/07 09:19:46;;;;;;;3.75;1.30;;;;;;;21.63;57.79;101339.97;5015716;28;20034;-60
2021/07/07 09:22:14;;;;;;;4.47;1.50;;;;;;;21.61;57.83;101335.78;5015587;28;20470;-60
2021/07/07 09:24:45;;;;;;;4.28;1.27;;;;;;;21.64;57.95;101344.31;5014809;28;20041;-62
2021/07/07 09:27:13;;;;;;;5.05;1.40;;;;;;;21.65;57.99;101356.59;5015436;28;20037;-59
2021/07/07 09:29:46;;;;;;;3.65;1.40;;;;;;;21.66;57.95;101357.44;5015178;28;20033;-59
2021/07/07 09:32:26;;;;;;;2.92;1.20;;;;;;;21.66;58.04;101352.97;5015297;28;20029;-60
2021/07/07 09:34:56;;;;;;;3.95;1.63;;;;;;;21.65;57.91;101361.03;5015181;28;20141;-59
2021/07/07 09:38:04;;;;;;;3.53;1.60;;;;;;;21.66;58.04;101362.75;5014331;28;20029;-62
2021/07/07 09:40:23;;;;;;;3.20;1.35;;;;;;;21.63;58.05;101369.13;5015547;28;20034;-60
2021/07/07 09:42:50;;;;;;;3.78;1.40;;;;;;;21.64;58.06;101370.81;5015173;28;20022;-59
2021/07/07 09:45:18;;;;;;;5.38;1.38;;;;;;;21.64;57.99;101376.13;5014412;28;20065;-60
2021/07/07 09:47:44;;;;;;;3.35;1.40;;;;;;;21.65;58.09;101380.47;5015238;28;20119;-60
2021/07/07 09:50:15;;;;;;;4.93;1.52;;;;;;;21.63;58.06;101374.44;5014874;28;20122;-60
2021/07/07 09:52:41;;;;;;;3.53;1.48;;;;;;;21.56;58.17;101368.03;5013869;28;20061;-60
2021/07/07 09:55:09;;;;;;;3.25;1.40;;;;;;;21.63;58.13;101385.06;5014844;28;20021;-60
2021/07/07 09:57:44;;;;;;;4.72;1.80;;;;;;;21.62;58.10;101388.69;5014398;28;20052;-60
2021/07/07 10:00:18;;;;;;;5.65;1.50;;;;;;;21.65;57.98;101393.75;5014212;28;20030;-60
2021/07/07 10:02:45;;;;;;;;;;;;;;;21.67;58.09;101385.66;5015220;28;20125;-60
2021/07/07 10:05:15;;;;;;;5.55;1.50;;;;;;;21.65;58.03;101388.44;5014152;28;19913;-60
2021/07/07 10:07:43;;;;;;;3.78;1.35;;;;;;;21.68;58.20;101395.25;5014725;28;20022;-57
2021/07/07 10:10:10;;;;;;;4.80;1.10;;;;;;;21.67;57.95;101390.94;5014648;28;20022;-58
2021/07/07 10:12:36;;;;;;;3.63;1.20;;;;;;;21.66;57.96;101395.41;5013731;28;20042;-59
2021/07/07 10:15:04;;;;;;;3.63;1.40;;;;;;;21.66;58.10;101394.56;5014693;28;20434;-58
2021/07/07 10:17:30;;;;;;;2.97;1.23;;;;;;;21.63;58.05;101403.63;5014279;28;20163;-59
2021/07/07 10:19:57;;;;;;;4.55;1.40;;;;;;;21.63;58.08;101408.09;5013855;28;20068;-59
2021/07/07 10:22:23;;;;;;;4.75;1.63;;;;;;;21.64;58.32;101413.28;5014225;28;20034;-59
2021/07/07 10:24:49;;;;;;;4.63;1.50;;;;;;;21.65;58.11;101414.97;5014433;28;20470;-58
2021/07/07 10:27:14;;;;;;;4.30;1.50;;;;;;;21.68;57.88;101414.69;5013495;28;20113;-59
2021/07/07 10:29:42;;;;;;;5.40;1.48;;;;;;;21.70;58.06;101422.50;5014357;28;20462;-58
2021/07/07 10:32:08;;;;;;;4.70;1.60;;;;;;;21.72;57.87;101407.28;5013209;28;20022;-61
2021/07/07 10:34:33;;;;;;;4.65;1.50;;;;;;;21.72;58.06;101408.13;5013211;28;20174;-59
2021/07/07 10:37:00;;;;;;;4.97;1.20;;;;;;;21.73;57.85;101407.16;5014705;28;20052;-60
2021/07/07 10:39:27;;;;;;;4.60;1.60;;;;;;;21.73;58.05;101409.81;5013992;28;20473;-59
2021/07/07 10:42:02;;;;;;;5.47;2.20;;;;;;;21.73;57.93;101409.81;5014340;28;20053;-60
2021/07/07 10:44:28;;;;;;;3.60;1.42;;;;;;;21.72;57.83;101412.59;5014215;28;20493;-61
2021/07/07 10:47:13;;;;;;;4.00;1.40;;;;;;;21.72;57.91;101424.03;5013888;28;20046;-59
2021/07/07 10:49:47;;;;;;;5.32;1.60;;;;;;;21.71;57.94;101421.53;5013375;28;20104;-59
2021/07/07 10:52:20;;;;;;;3.78;1.30;;;;;;;21.72;57.80;101417.91;5013957;28;20083;-59
2021/07/07 10:55:00;;;;;;;3.13;1.37;;;;;;;21.71;57.77;101418.88;5013288;28;20030;-59
2021/07/07 10:57:35;;;;;;;4.93;1.35;;;;;;;21.75;57.88;101420.28;5011399;28;20492;-59
2021/07/07 11:00:05;;;;;;;3.22;1.20;;;;;;;21.76;57.90;101429.09;5013573;28;20037;-60
2021/07/07 11:02:30;;;;;;;3.00;1.17;;;;;;;21.78;57.89;101429.78;5013032;28;20021;-60
2021/07/07 11:05:01;;;;;;;3.75;1.50;;;;;;;21.79;57.91;101429.63;5013985;28;20049;-61
2021/07/07 11:07:32;;;;;;;4.50;1.50;;;;;;;21.79;57.83;101424.34;5013134;28;20026;-60
2021/07/07 11:10:24;;;;;;;4.53;1.40;;;;;;;21.79;57.83;101431.47;5012500;28;20052;-60
2021/07/07 11:12:49;;;;;;;4.57;1.52;;;;;;;21.77;57.26;101436.91;5013638;28;20028;-59
2021/07/07 11:15:23;;;;;;;3.15;1.20;;;;;;;21.74;56.96;101427.38;5012431;28;20109;-58
2021/07/07 11:17:50;;;;;;;2.85;1.50;;;;;;;21.80;57.32;101441.13;5011728;28;20157;-58
2021/07/07 11:20:21;;;;;;;2.97;1.30;;;;;;;21.82;57.57;101442.63;5011553;28;20025;-57
2021/07/07 11:22:59;;;;;;;5.32;2.65;;;;;;;21.83;57.58;101440.84;5011197;28;20028;-59
2021/07/07 11:25:25;;;;;;;2.97;1.40;;;;;;;21.83;57.68;101438.19;5015234;28;20129;-59